createdAt,value
2017-11-12T00:00:15.400Z,0.00
2017-11-12T00:01:15.388Z,0.00
2017-11-12T00:02:15.379Z,0.00
2017-11-12T00:03:15.372Z,0.00
2017-11-12T00:04:15.363Z,0.00
2017-11-12T00:05:15.356Z,0.00
2017-11-12T00:06:15.350Z,0.00
2017-11-12T00:07:15.340Z,0.00
2017-11-12T00:08:15.332Z,0.00
2017-11-12T00:09:15.328Z,0.00
2017-11-12T00:10:15.322Z,0.00
2017-11-12T00:11:15.312Z,0.00
2017-11-12T00:12:15.305Z,0.00
2017-11-12T00:13:15.297Z,0.00
2017-11-12T00:14:15.290Z,0.00
2017-11-12T00:15:15.281Z,0.00
2017-11-12T00:16:15.272Z,0.00
2017-11-12T00:17:15.262Z,0.00
2017-11-12T00:18:15.254Z,0.00
2017-11-12T00:19:15.245Z,0.00
2017-11-12T00:20:15.237Z,0.00
2017-11-12T00:21:15.228Z,0.00
2017-11-12T00:22:15.222Z,0.00
2017-11-12T00:23:15.213Z,0.00
2017-11-12T00:24:15.205Z,0.00
2017-11-12T00:25:15.202Z,0.00
2017-11-12T00:26:15.194Z,0.00
2017-11-12T00:27:15.185Z,0.00
2017-11-12T00:28:15.177Z,0.00
2017-11-12T00:29:15.171Z,0.00
2017-11-12T00:30:15.163Z,0.00
2017-11-12T00:31:15.152Z,0.00
2017-11-12T00:32:15.146Z,0.00
2017-11-12T00:33:15.134Z,0.00
2017-11-12T00:34:15.125Z,0.00
2017-11-12T00:35:15.118Z,0.00
2017-11-12T00:36:15.108Z,0.00
2017-11-12T00:37:15.102Z,0.00
2017-11-12T00:38:15.093Z,0.00
2017-11-12T00:39:15.084Z,0.00
2017-11-12T00:40:15.076Z,0.00
2017-11-12T00:41:15.073Z,0.00
2017-11-12T00:42:15.064Z,0.00
2017-11-12T00:43:15.057Z,0.00
2017-11-12T00:44:15.048Z,0.00
2017-11-12T00:45:15.053Z,0.00
2017-11-12T00:46:15.039Z,0.00
2017-11-12T00:47:15.024Z,0.00
2017-11-12T00:48:15.016Z,0.00
2017-11-12T00:49:15.005Z,0.00
2017-11-12T00:50:14.996Z,0.00
2017-11-12T00:51:14.986Z,0.00
2017-11-12T00:52:14.980Z,0.00
2017-11-12T00:53:14.972Z,0.00
2017-11-12T00:54:14.963Z,0.00
2017-11-12T00:55:14.972Z,0.00
2017-11-12T00:56:14.946Z,0.00
2017-11-12T00:57:14.943Z,0.00
2017-11-12T00:58:14.937Z,0.00
2017-11-12T00:59:14.927Z,0.00
2017-11-12T01:00:14.922Z,0.00
2017-11-12T01:01:14.910Z,0.00
2017-11-12T01:02:14.903Z,0.00
2017-11-12T01:03:14.895Z,0.00
2017-11-12T01:04:14.884Z,0.00
2017-11-12T01:05:14.873Z,0.00
2017-11-12T01:06:14.864Z,0.00
2017-11-12T01:07:14.857Z,0.00
2017-11-12T01:08:14.851Z,0.00
2017-11-12T01:09:14.841Z,0.00
2017-11-12T01:10:14.834Z,0.00
2017-11-12T01:11:14.824Z,0.00
2017-11-12T01:12:14.817Z,0.00
2017-11-12T01:13:14.813Z,0.00
2017-11-12T01:14:14.807Z,0.00
2017-11-12T01:15:14.798Z,0.00
2017-11-12T01:16:14.790Z,0.00
2017-11-12T01:17:14.783Z,0.00
2017-11-12T01:18:14.774Z,0.00
2017-11-12T01:19:14.765Z,0.00
2017-11-12T01:20:14.760Z,0.00
2017-11-12T01:21:14.748Z,0.00
2017-11-12T01:22:14.738Z,0.00
2017-11-12T01:23:14.730Z,0.00
2017-11-12T01:24:14.723Z,0.00
2017-11-12T01:25:14.716Z,0.00
2017-11-12T01:26:14.715Z,0.00
2017-11-12T01:27:14.701Z,0.00
2017-11-12T01:28:14.693Z,0.00
2017-11-12T01:29:14.689Z,0.00
2017-11-12T01:30:14.681Z,0.00
2017-11-12T01:31:14.673Z,0.00
2017-11-12T01:32:14.665Z,0.00
2017-11-12T01:33:14.658Z,0.00
2017-11-12T01:34:14.656Z,0.00
2017-11-12T01:35:14.640Z,0.00
2017-11-12T01:36:14.635Z,0.00
2017-11-12T01:37:14.622Z,0.00
2017-11-12T01:38:14.614Z,0.00
2017-11-12T01:39:14.605Z,0.00
2017-11-12T01:40:14.598Z,0.00
2017-11-12T01:41:14.593Z,0.00
2017-11-12T01:42:14.583Z,0.00
2017-11-12T01:43:14.575Z,0.00
2017-11-12T01:44:14.570Z,0.00
2017-11-12T01:45:14.565Z,0.00
2017-11-12T01:46:14.557Z,0.00
2017-11-12T01:47:14.548Z,0.00
2017-11-12T01:48:14.542Z,0.00
2017-11-12T01:49:14.534Z,0.00
2017-11-12T01:50:14.525Z,0.00
2017-11-12T01:51:14.517Z,0.00
2017-11-12T01:52:14.508Z,0.00
2017-11-12T01:53:14.497Z,0.00
2017-11-12T01:54:14.492Z,0.00
2017-11-12T01:55:14.482Z,0.00
2017-11-12T01:56:14.476Z,0.00
2017-11-12T01:57:14.472Z,0.00
2017-11-12T01:58:14.463Z,0.00
2017-11-12T01:59:14.456Z,0.00
2017-11-12T02:00:14.449Z,0.00
2017-11-12T02:01:14.437Z,0.00
2017-11-12T02:02:14.429Z,0.00
2017-11-12T02:03:14.424Z,0.00
2017-11-12T02:04:14.418Z,0.00
2017-11-12T02:05:14.405Z,0.00
2017-11-12T02:06:14.398Z,0.00
2017-11-12T02:07:14.390Z,0.00
2017-11-12T02:08:14.381Z,0.00
2017-11-12T02:09:14.378Z,0.00
2017-11-12T02:10:14.372Z,0.00
2017-11-12T02:11:14.363Z,0.00
2017-11-12T02:12:14.356Z,0.00
2017-11-12T02:13:14.348Z,0.00
2017-11-12T02:14:14.342Z,0.00
2017-11-12T02:15:14.333Z,0.00
2017-11-12T02:16:14.326Z,0.00
2017-11-12T02:17:14.314Z,0.00
2017-11-12T02:18:14.305Z,0.00
2017-11-12T02:19:14.298Z,0.00
2017-11-12T02:20:14.290Z,0.00
2017-11-12T02:21:14.282Z,0.00
2017-11-12T02:22:14.277Z,0.00
2017-11-12T02:23:14.266Z,0.00
2017-11-12T02:24:14.260Z,0.00
2017-11-12T02:25:14.264Z,0.00
2017-11-12T02:26:14.249Z,0.00
2017-11-12T02:27:14.240Z,0.00
2017-11-12T02:28:14.237Z,0.00
2017-11-12T02:29:14.225Z,0.00
2017-11-12T02:30:14.219Z,0.00
2017-11-12T02:31:14.209Z,0.00
2017-11-12T02:32:14.204Z,0.00
2017-11-12T02:33:14.191Z,0.00
2017-11-12T02:34:14.183Z,0.00
2017-11-12T02:35:14.175Z,0.00
2017-11-12T02:36:14.167Z,0.00
2017-11-12T02:37:14.161Z,0.00
2017-11-12T02:38:14.152Z,0.00
2017-11-12T02:39:14.143Z,0.00
2017-11-12T02:40:14.136Z,0.00
2017-11-12T02:41:14.133Z,0.00
2017-11-12T02:42:14.125Z,0.00
2017-11-12T02:43:14.117Z,0.00
2017-11-12T02:44:14.109Z,0.00
2017-11-12T02:45:14.101Z,0.00
2017-11-12T02:46:14.094Z,0.00
2017-11-12T02:47:14.088Z,0.00
2017-11-12T02:48:14.079Z,0.00
2017-11-12T02:49:14.067Z,0.00
2017-11-12T02:50:14.059Z,0.00
2017-11-12T02:51:14.049Z,0.00
2017-11-12T02:52:14.047Z,0.00
2017-11-12T02:53:14.035Z,0.00
2017-11-12T02:54:14.027Z,0.00
2017-11-12T02:55:14.020Z,0.00
2017-11-12T02:56:14.013Z,0.00
2017-11-12T02:57:14.011Z,0.00
2017-11-12T02:58:14.001Z,0.00
2017-11-12T02:59:13.992Z,0.00
2017-11-12T03:00:13.986Z,0.00
2017-11-12T03:01:13.975Z,0.00
2017-11-12T03:02:13.966Z,0.00
2017-11-12T03:03:13.956Z,0.00
2017-11-12T03:04:13.949Z,0.00
2017-11-12T03:05:13.946Z,0.00
2017-11-12T03:06:13.938Z,0.00
2017-11-12T03:07:13.929Z,0.00
2017-11-12T03:08:13.921Z,0.00
2017-11-12T03:09:13.915Z,0.00
2017-11-12T03:10:13.907Z,0.00
2017-11-12T03:11:13.898Z,0.00
2017-11-12T03:12:13.890Z,0.00
2017-11-12T03:13:13.877Z,0.00
2017-11-12T03:14:13.871Z,0.00
2017-11-12T03:15:13.863Z,0.00
2017-11-12T03:16:13.856Z,0.00
2017-11-12T03:17:13.847Z,0.00
2017-11-12T03:18:13.839Z,0.00
2017-11-12T03:19:13.830Z,0.00
2017-11-12T03:20:13.823Z,0.00
2017-11-12T03:21:13.818Z,0.00
2017-11-12T03:22:13.813Z,0.00
2017-11-12T03:23:13.803Z,0.00
2017-11-12T03:24:13.794Z,0.00
2017-11-12T03:25:13.788Z,0.00
2017-11-12T03:26:13.779Z,0.00
2017-11-12T03:27:13.769Z,0.00
2017-11-12T03:28:13.764Z,0.00
2017-11-12T03:29:13.751Z,0.00
2017-11-12T03:30:13.745Z,0.00
2017-11-12T03:31:13.736Z,0.00
2017-11-12T03:32:13.731Z,0.00
2017-11-12T03:33:13.719Z,0.00
2017-11-12T03:34:13.711Z,0.00
2017-11-12T03:35:13.703Z,0.00
2017-11-12T03:36:13.694Z,0.00
2017-11-12T03:37:13.692Z,0.00
2017-11-12T03:38:13.684Z,0.00
2017-11-12T03:39:13.675Z,0.00
2017-11-12T03:40:13.669Z,0.00
2017-11-12T03:41:13.660Z,0.00
2017-11-12T03:42:13.653Z,0.00
2017-11-12T03:43:13.644Z,0.00
2017-11-12T03:44:13.636Z,0.00
2017-11-12T03:45:13.624Z,0.00
2017-11-12T03:46:13.618Z,0.00
2017-11-12T03:47:13.607Z,0.00
2017-11-12T03:48:13.601Z,0.00
2017-11-12T03:49:13.593Z,0.00
2017-11-12T03:50:13.586Z,0.00
2017-11-12T03:51:13.576Z,0.00
2017-11-12T03:52:13.571Z,0.00
2017-11-12T03:53:13.565Z,0.00
2017-11-12T03:54:13.558Z,0.00
2017-11-12T03:55:13.550Z,0.00
2017-11-12T03:56:13.541Z,0.00
2017-11-12T03:57:13.534Z,0.00
2017-11-12T03:58:13.536Z,0.00
2017-11-12T03:59:13.520Z,0.00
2017-11-12T04:00:13.517Z,0.00
2017-11-12T04:01:13.500Z,0.00
2017-11-12T04:02:13.492Z,0.00
2017-11-12T04:03:13.483Z,0.00
2017-11-12T04:04:13.475Z,0.00
2017-11-12T04:05:13.473Z,0.00
2017-11-12T04:06:13.470Z,0.00
2017-11-12T04:07:13.456Z,0.00
2017-11-12T04:08:13.450Z,0.00
2017-11-12T04:09:13.438Z,0.00
2017-11-12T04:10:13.429Z,0.00
2017-11-12T04:11:13.422Z,0.00
2017-11-12T04:12:13.415Z,0.00
2017-11-12T04:13:13.406Z,0.00
2017-11-12T04:14:13.399Z,0.00
2017-11-12T04:15:13.392Z,0.00
2017-11-12T04:16:13.388Z,0.00
2017-11-12T04:17:13.380Z,0.00
2017-11-12T04:18:13.371Z,0.00
2017-11-12T04:19:13.371Z,0.00
2017-11-12T04:20:13.355Z,0.00
2017-11-12T04:21:13.349Z,0.00
2017-11-12T04:22:13.341Z,0.00
2017-11-12T04:23:13.332Z,0.00
2017-11-12T04:24:13.324Z,0.00
2017-11-12T04:25:13.315Z,0.00
2017-11-12T04:26:13.306Z,0.00
2017-11-12T04:27:13.298Z,0.00
2017-11-12T04:28:13.291Z,0.00
2017-11-12T04:29:13.282Z,0.00
2017-11-12T04:30:13.275Z,0.00
2017-11-12T04:31:13.267Z,0.00
2017-11-12T04:32:13.260Z,0.00
2017-11-12T04:33:13.256Z,0.00
2017-11-12T04:34:13.249Z,0.00
2017-11-12T04:35:13.241Z,0.00
2017-11-12T04:36:13.233Z,0.00
2017-11-12T04:37:13.225Z,0.00
2017-11-12T04:38:13.219Z,0.00
2017-11-12T04:39:13.210Z,0.00
2017-11-12T04:40:13.206Z,0.00
2017-11-12T04:41:13.188Z,0.00
2017-11-12T04:42:13.181Z,0.00
2017-11-12T04:43:13.174Z,0.00
2017-11-12T04:44:13.167Z,0.00
2017-11-12T04:45:13.160Z,0.00
2017-11-12T04:46:13.152Z,0.00
2017-11-12T04:47:13.143Z,0.00
2017-11-12T04:48:13.135Z,0.00
2017-11-12T04:49:13.132Z,0.00
2017-11-12T04:50:13.126Z,0.00
2017-11-12T04:51:13.116Z,0.00
2017-11-12T04:52:13.108Z,0.00
2017-11-12T04:53:13.101Z,0.00
2017-11-12T04:54:13.094Z,0.00
2017-11-12T04:55:13.086Z,0.00
2017-11-12T04:56:13.078Z,0.00
2017-11-12T04:57:13.065Z,0.00
2017-11-12T04:58:13.058Z,0.00
2017-11-12T04:59:13.051Z,0.00
2017-11-12T05:00:13.043Z,0.00
2017-11-12T05:01:13.034Z,0.00
2017-11-12T05:02:13.027Z,0.00
2017-11-12T05:03:13.019Z,0.00
2017-11-12T05:04:13.011Z,0.00
2017-11-12T05:05:13.009Z,0.00
2017-11-12T05:06:13.000Z,0.00
2017-11-12T05:07:12.992Z,0.00
2017-11-12T05:08:12.983Z,0.00
2017-11-12T05:09:12.973Z,0.00
2017-11-12T05:10:12.965Z,0.00
2017-11-12T05:11:12.954Z,0.00
2017-11-12T05:12:12.949Z,0.00
2017-11-12T05:13:12.944Z,0.00
2017-11-12T05:14:12.936Z,0.00
2017-11-12T05:15:12.926Z,0.00
2017-11-12T05:16:12.919Z,0.00
2017-11-12T05:17:12.912Z,0.00
2017-11-12T05:18:12.904Z,0.00
2017-11-12T05:19:12.896Z,0.00
2017-11-12T05:20:12.889Z,0.00
2017-11-12T05:21:12.876Z,0.00
2017-11-12T05:22:12.868Z,0.00
2017-11-12T05:23:12.860Z,0.00
2017-11-12T05:24:12.853Z,0.00
2017-11-12T05:25:12.845Z,0.00
2017-11-12T05:26:12.836Z,0.00
2017-11-12T05:27:12.829Z,0.00
2017-11-12T05:28:12.820Z,0.00
2017-11-12T05:29:12.816Z,0.00
2017-11-12T05:30:12.819Z,0.00
2017-11-12T05:31:12.801Z,0.00
2017-11-12T05:32:12.792Z,0.00
2017-11-12T05:33:12.786Z,0.00
2017-11-12T05:34:12.778Z,0.00
2017-11-12T05:35:12.771Z,0.00
2017-11-12T05:36:12.763Z,0.00
2017-11-12T05:37:12.754Z,0.00
2017-11-12T05:38:12.745Z,0.00
2017-11-12T05:39:12.735Z,0.00
2017-11-12T05:40:12.729Z,0.00
2017-11-12T05:41:12.721Z,0.00
2017-11-12T05:42:12.714Z,0.00
2017-11-12T05:43:12.710Z,0.00
2017-11-12T05:44:12.702Z,0.00
2017-11-12T05:45:12.695Z,0.00
2017-11-12T05:46:12.686Z,0.00
2017-11-12T05:47:12.678Z,0.00
2017-11-12T05:48:12.672Z,0.00
2017-11-12T05:49:12.672Z,0.00
2017-11-12T05:50:12.657Z,0.00
2017-11-12T05:51:12.648Z,0.00
2017-11-12T05:52:12.640Z,0.00
2017-11-12T05:53:12.629Z,0.00
2017-11-12T05:54:12.623Z,0.00
2017-11-12T05:55:12.614Z,0.00
2017-11-12T05:56:12.611Z,0.00
2017-11-12T05:57:12.600Z,0.00
2017-11-12T05:58:12.591Z,0.00
2017-11-12T05:59:12.585Z,0.00
2017-11-12T06:00:12.576Z,0.00
2017-11-12T06:01:12.573Z,0.00
2017-11-12T06:02:12.566Z,0.00
2017-11-12T06:03:12.558Z,0.00
2017-11-12T06:04:12.551Z,0.00
2017-11-12T06:05:12.543Z,0.00
2017-11-12T06:06:12.536Z,0.00
2017-11-12T06:07:12.526Z,0.00
2017-11-12T06:08:12.519Z,0.00
2017-11-12T06:09:12.508Z,0.00
2017-11-12T06:10:12.501Z,0.00
2017-11-12T06:11:12.497Z,0.00
2017-11-12T06:12:12.486Z,0.00
2017-11-12T06:13:12.484Z,0.00
2017-11-12T06:14:12.476Z,0.00
2017-11-12T06:15:12.467Z,0.00
2017-11-12T06:16:12.461Z,0.00
2017-11-12T06:17:12.450Z,0.00
2017-11-12T06:18:12.441Z,4.00
2017-11-12T06:19:12.433Z,4.00
2017-11-12T06:20:12.425Z,4.00
2017-11-12T06:21:12.418Z,4.00
2017-11-12T06:22:12.414Z,4.00
2017-11-12T06:23:12.404Z,4.00
2017-11-12T06:24:12.398Z,8.00
2017-11-12T06:25:12.393Z,8.00
2017-11-12T06:26:12.385Z,8.00
2017-11-12T06:27:12.377Z,12.00
2017-11-12T06:28:12.370Z,12.00
2017-11-12T06:29:12.364Z,16.00
2017-11-12T06:30:12.359Z,16.00
2017-11-12T06:31:12.346Z,16.00
2017-11-12T06:32:12.340Z,16.00
2017-11-12T06:33:12.329Z,20.00
2017-11-12T06:34:12.322Z,20.00
2017-11-12T06:35:12.313Z,24.00
2017-11-12T06:36:12.306Z,24.00
2017-11-12T06:37:12.299Z,24.00
2017-11-12T06:38:12.290Z,28.00
2017-11-12T06:39:12.284Z,32.00
2017-11-12T06:40:12.276Z,32.00
2017-11-12T06:41:12.272Z,40.00
2017-11-12T06:42:12.266Z,48.00
2017-11-12T06:43:12.259Z,48.00
2017-11-12T06:44:12.251Z,56.00
2017-11-12T06:45:12.245Z,64.00
2017-11-12T06:46:12.236Z,72.00
2017-11-12T06:47:12.227Z,80.00
2017-11-12T06:48:12.221Z,88.00
2017-11-12T06:49:12.208Z,96.00
2017-11-12T06:50:12.201Z,104.00
2017-11-12T06:51:12.193Z,116.00
2017-11-12T06:52:12.186Z,128.00
2017-11-12T06:53:12.178Z,140.00
2017-11-12T06:54:12.169Z,156.00
2017-11-12T06:55:12.162Z,160.00
2017-11-12T06:56:12.155Z,164.00
2017-11-12T06:57:12.152Z,176.00
2017-11-12T06:58:12.145Z,184.00
2017-11-12T06:59:12.140Z,192.00
2017-11-12T07:00:12.129Z,200.00
2017-11-12T07:01:12.121Z,196.00
2017-11-12T07:02:12.115Z,200.00
2017-11-12T07:03:12.111Z,212.00
2017-11-12T07:04:12.098Z,220.00
2017-11-12T07:05:12.086Z,224.00
2017-11-12T07:06:12.080Z,220.00
2017-11-12T07:07:12.072Z,204.00
2017-11-12T07:08:12.064Z,192.00
2017-11-12T07:09:12.057Z,184.00
2017-11-12T07:10:12.049Z,180.00
2017-11-12T07:11:12.040Z,192.00
2017-11-12T07:12:12.033Z,192.00
2017-11-12T07:13:12.032Z,208.00
2017-11-12T07:14:12.031Z,240.00
2017-11-12T07:15:12.015Z,280.00
2017-11-12T07:16:12.007Z,324.00
2017-11-12T07:17:11.996Z,376.00
2017-11-12T07:18:11.989Z,428.00
2017-11-12T07:19:11.980Z,432.00
2017-11-12T07:20:11.973Z,368.00
2017-11-12T07:21:11.970Z,312.00
2017-11-12T07:22:11.966Z,300.00
2017-11-12T07:23:11.955Z,280.00
2017-11-12T07:24:11.947Z,280.00
2017-11-12T07:25:11.939Z,292.00
2017-11-12T07:26:11.932Z,324.00
2017-11-12T07:27:11.926Z,344.00
2017-11-12T07:28:11.917Z,332.00
2017-11-12T07:29:11.910Z,316.00
2017-11-12T07:30:11.898Z,308.00
2017-11-12T07:31:11.890Z,324.00
2017-11-12T07:32:11.883Z,352.00
2017-11-12T07:33:11.876Z,396.00
2017-11-12T07:34:11.868Z,424.00
2017-11-12T07:35:11.859Z,420.00
2017-11-12T07:36:11.854Z,400.00
2017-11-12T07:37:11.850Z,380.00
2017-11-12T07:38:11.841Z,352.00
2017-11-12T07:39:11.834Z,364.00
2017-11-12T07:40:11.826Z,408.00
2017-11-12T07:41:11.819Z,464.00
2017-11-12T07:42:11.812Z,472.00
2017-11-12T07:43:11.804Z,432.00
2017-11-12T07:44:11.798Z,392.00
2017-11-12T07:45:11.788Z,364.00
2017-11-12T07:46:11.780Z,356.00
2017-11-12T07:47:11.771Z,356.00
2017-11-12T07:48:11.763Z,356.00
2017-11-12T07:49:11.756Z,372.00
2017-11-12T07:50:11.748Z,408.00
2017-11-12T07:51:11.739Z,444.00
2017-11-12T07:52:11.733Z,472.00
2017-11-12T07:53:11.731Z,488.00
2017-11-12T07:54:11.734Z,504.00
2017-11-12T07:55:11.714Z,516.00
2017-11-12T07:56:11.708Z,528.00
2017-11-12T07:57:11.705Z,524.00
2017-11-12T07:58:11.696Z,516.00
2017-11-12T07:59:11.685Z,484.00
2017-11-12T08:00:11.680Z,432.00
2017-11-12T08:01:11.667Z,404.00
2017-11-12T08:02:11.659Z,380.00
2017-11-12T08:03:11.652Z,360.00
2017-11-12T08:04:11.648Z,348.00
2017-11-12T08:05:11.638Z,352.00
2017-11-12T08:06:11.631Z,348.00
2017-11-12T08:07:11.621Z,336.00
2017-11-12T08:08:11.614Z,340.00
2017-11-12T08:09:11.614Z,356.00
2017-11-12T08:10:11.605Z,372.00
2017-11-12T08:11:11.597Z,400.00
2017-11-12T08:12:11.591Z,432.00
2017-11-12T08:13:11.585Z,460.00
2017-11-12T08:14:11.577Z,500.00
2017-11-12T08:15:11.569Z,532.00
2017-11-12T08:16:11.563Z,508.00
2017-11-12T08:17:11.551Z,524.00
2017-11-12T08:18:11.546Z,548.00
2017-11-12T08:19:11.536Z,592.00
2017-11-12T08:20:11.528Z,612.00
2017-11-12T08:21:11.528Z,532.00
2017-11-12T08:22:11.518Z,520.00
2017-11-12T08:23:11.512Z,580.00
2017-11-12T08:24:11.505Z,656.00
2017-11-12T08:25:11.492Z,744.00
2017-11-12T08:26:11.486Z,784.00
2017-11-12T08:27:11.477Z,752.00
2017-11-12T08:28:11.471Z,672.00
2017-11-12T08:29:11.463Z,596.00
2017-11-12T08:30:11.456Z,552.00
2017-11-12T08:31:11.449Z,656.00
2017-11-12T08:32:11.442Z,752.00
2017-11-12T08:33:11.437Z,784.00
2017-11-12T08:34:11.478Z,744.00
2017-11-12T08:35:11.424Z,776.00
2017-11-12T08:36:11.416Z,724.00
2017-11-12T08:37:11.408Z,696.00
2017-11-12T08:38:11.412Z,724.00
2017-11-12T08:39:11.403Z,752.00
2017-11-12T08:40:11.387Z,792.00
2017-11-12T08:41:11.375Z,816.00
2017-11-12T08:42:11.368Z,792.00
2017-11-12T08:43:11.360Z,780.00
2017-11-12T08:44:11.353Z,772.00
2017-11-12T08:45:11.349Z,764.00
2017-11-12T08:46:11.338Z,764.00
2017-11-12T08:47:11.331Z,780.00
2017-11-12T08:48:11.323Z,764.00
2017-11-12T08:49:11.322Z,920.00
2017-11-12T08:50:11.312Z,876.00
2017-11-12T08:51:11.305Z,856.00
2017-11-12T08:52:11.299Z,896.00
2017-11-12T08:53:11.290Z,908.00
2017-11-12T08:54:11.285Z,992.00
2017-11-12T08:55:11.276Z,1060.00
2017-11-12T08:56:11.273Z,1136.00
2017-11-12T08:57:11.258Z,1224.00
2017-11-12T08:58:11.250Z,1408.00
2017-11-12T08:59:11.244Z,1508.00
2017-11-12T09:00:11.235Z,1596.00
2017-11-12T09:01:11.229Z,1672.00
2017-11-12T09:02:11.222Z,1732.00
2017-11-12T09:03:11.220Z,1752.00
2017-11-12T09:04:11.206Z,1824.00
2017-11-12T09:05:11.204Z,1808.00
2017-11-12T09:06:11.197Z,1796.00
2017-11-12T09:07:11.188Z,1824.00
2017-11-12T09:08:11.182Z,1928.00
2017-11-12T09:09:11.174Z,1984.00
2017-11-12T09:10:11.167Z,2012.00
2017-11-12T09:11:11.160Z,2020.00
2017-11-12T09:12:11.153Z,2056.00
2017-11-12T09:13:11.142Z,2156.00
2017-11-12T09:14:11.134Z,2296.00
2017-11-12T09:15:11.128Z,2432.00
2017-11-12T09:16:11.121Z,2544.00
2017-11-12T09:17:11.116Z,2640.00
2017-11-12T09:18:11.108Z,2712.00
2017-11-12T09:19:11.099Z,2704.00
2017-11-12T09:20:11.093Z,2600.00
2017-11-12T09:21:11.090Z,2472.00
2017-11-12T09:22:11.084Z,2436.00
2017-11-12T09:23:11.076Z,2460.00
2017-11-12T09:24:11.070Z,2432.00
2017-11-12T09:25:11.064Z,2292.00
2017-11-12T09:26:11.056Z,2148.00
2017-11-12T09:27:11.050Z,1996.00
2017-11-12T09:28:11.044Z,1872.00
2017-11-12T09:29:11.031Z,1788.00
2017-11-12T09:30:11.027Z,1776.00
2017-11-12T09:31:11.019Z,1884.00
2017-11-12T09:32:11.019Z,1968.00
2017-11-12T09:33:11.006Z,2048.00
2017-11-12T09:34:10.999Z,2156.00
2017-11-12T09:35:10.991Z,2272.00
2017-11-12T09:36:10.985Z,2424.00
2017-11-12T09:37:10.982Z,2700.00
2017-11-12T09:38:10.976Z,3068.00
2017-11-12T09:39:10.969Z,3428.00
2017-11-12T09:40:10.963Z,3588.00
2017-11-12T09:41:10.955Z,3468.00
2017-11-12T09:42:10.950Z,3428.00
2017-11-12T09:43:10.943Z,3448.00
2017-11-12T09:44:10.936Z,3296.00
2017-11-12T09:45:10.927Z,3036.00
2017-11-12T09:46:10.923Z,2836.00
2017-11-12T09:47:10.914Z,2768.00
2017-11-12T09:48:10.906Z,2764.00
2017-11-12T09:49:10.901Z,2792.00
2017-11-12T09:50:10.895Z,2860.00
2017-11-12T09:51:10.886Z,2944.00
2017-11-12T09:52:10.881Z,3004.00
2017-11-12T09:53:10.880Z,3020.00
2017-11-12T09:54:10.873Z,3000.00
2017-11-12T09:55:10.867Z,2932.00
2017-11-12T09:56:10.859Z,2808.00
2017-11-12T09:57:10.859Z,2812.00
2017-11-12T09:58:10.852Z,2816.00
2017-11-12T09:59:10.841Z,2716.00
2017-11-12T10:00:10.836Z,2520.00
2017-11-12T10:01:10.825Z,2328.00
2017-11-12T10:02:10.819Z,2264.00
2017-11-12T10:03:10.812Z,2200.00
2017-11-12T10:04:10.806Z,1996.00
2017-11-12T10:05:10.801Z,1648.00
2017-11-12T10:06:10.796Z,1180.00
2017-11-12T10:07:10.786Z,1032.00
2017-11-12T10:08:10.781Z,1132.00
2017-11-12T10:09:10.782Z,1324.00
2017-11-12T10:10:10.773Z,1352.00
2017-11-12T10:11:10.766Z,1372.00
2017-11-12T10:12:10.759Z,1380.00
2017-11-12T10:13:10.759Z,1124.00
2017-11-12T10:14:10.749Z,1196.00
2017-11-12T10:15:10.741Z,1256.00
2017-11-12T10:16:10.748Z,1184.00
2017-11-12T10:17:10.724Z,1120.00
2017-11-12T10:18:10.719Z,880.00
2017-11-12T10:19:10.712Z,748.00
2017-11-12T10:20:10.707Z,708.00
2017-11-12T10:21:10.701Z,688.00
2017-11-12T10:22:10.698Z,660.00
2017-11-12T10:23:10.688Z,536.00
2017-11-12T10:24:10.680Z,656.00
2017-11-12T10:25:10.680Z,676.00
2017-11-12T10:26:10.673Z,640.00
2017-11-12T10:27:10.666Z,620.00
2017-11-12T10:28:10.659Z,724.00
2017-11-12T10:29:10.651Z,704.00
2017-11-12T10:30:10.644Z,712.00
2017-11-12T10:31:10.637Z,680.00
2017-11-12T10:32:10.631Z,620.00
2017-11-12T10:33:10.629Z,688.00
2017-11-12T10:34:10.622Z,996.00
2017-11-12T10:35:10.617Z,1512.00
2017-11-12T10:36:10.609Z,2048.00
2017-11-12T10:37:10.602Z,2800.00
2017-11-12T10:38:10.594Z,3456.00
2017-11-12T10:39:10.592Z,3072.00
2017-11-12T10:40:10.581Z,2504.00
2017-11-12T10:41:10.584Z,2148.00
2017-11-12T10:42:10.569Z,1928.00
2017-11-12T10:43:10.557Z,1472.00
2017-11-12T10:44:10.550Z,1556.00
2017-11-12T10:45:10.545Z,1852.00
2017-11-12T10:46:10.538Z,2208.00
2017-11-12T10:47:10.530Z,1936.00
2017-11-12T10:48:10.525Z,1964.00
2017-11-12T10:49:10.523Z,2380.00
2017-11-12T10:50:10.516Z,2848.00
2017-11-12T10:51:10.509Z,3144.00
2017-11-12T10:52:10.502Z,3492.00
2017-11-12T10:53:10.494Z,3772.00
2017-11-12T10:54:10.494Z,4048.00
2017-11-12T10:55:10.500Z,4560.00
2017-11-12T10:56:10.477Z,4992.00
2017-11-12T10:57:10.465Z,4884.00
2017-11-12T10:58:10.463Z,3964.00
2017-11-12T10:59:10.472Z,3956.00
2017-11-12T11:00:10.446Z,3872.00
2017-11-12T11:01:10.444Z,3736.00
2017-11-12T11:02:10.435Z,3824.00
2017-11-12T11:03:10.435Z,3956.00
2017-11-12T11:04:10.423Z,3920.00
2017-11-12T11:05:10.420Z,4064.00
2017-11-12T11:06:10.415Z,4356.00
2017-11-12T11:07:10.410Z,4756.00
2017-11-12T11:08:10.408Z,4916.00
2017-11-12T11:09:10.397Z,4832.00
2017-11-12T11:10:10.390Z,4672.00
2017-11-12T11:11:10.385Z,4372.00
2017-11-12T11:12:10.380Z,4116.00
2017-11-12T11:13:10.370Z,3748.00
2017-11-12T11:14:10.365Z,3372.00
2017-11-12T11:15:10.358Z,3160.00
2017-11-12T11:16:10.353Z,3128.00
2017-11-12T11:17:10.346Z,3072.00
2017-11-12T11:18:10.342Z,2952.00
2017-11-12T11:19:10.336Z,2932.00
2017-11-12T11:20:10.330Z,3016.00
2017-11-12T11:21:10.328Z,3028.00
2017-11-12T11:22:10.324Z,2972.00
2017-11-12T11:23:10.320Z,2840.00
2017-11-12T11:24:10.312Z,2808.00
2017-11-12T11:25:10.308Z,2788.00
2017-11-12T11:26:10.302Z,2880.00
2017-11-12T11:27:10.294Z,3084.00
2017-11-12T11:28:10.289Z,2976.00
2017-11-12T11:29:10.292Z,2328.00
2017-11-12T11:30:10.280Z,1872.00
2017-11-12T11:31:10.268Z,2376.00
2017-11-12T11:32:10.264Z,2776.00
2017-11-12T11:33:10.261Z,2516.00
2017-11-12T11:34:10.258Z,2820.00
2017-11-12T11:35:10.250Z,3060.00
2017-11-12T11:36:10.244Z,3492.00
2017-11-12T11:37:10.236Z,3164.00
2017-11-12T11:38:10.231Z,2676.00
2017-11-12T11:39:10.230Z,2164.00
2017-11-12T11:40:10.219Z,2068.00
2017-11-12T11:41:10.214Z,2148.00
2017-11-12T11:42:10.210Z,2432.00
2017-11-12T11:43:10.204Z,3228.00
2017-11-12T11:44:10.199Z,3964.00
2017-11-12T11:45:10.197Z,4032.00
2017-11-12T11:46:10.192Z,3780.00
2017-11-12T11:47:10.185Z,4028.00
2017-11-12T11:48:10.180Z,4220.00
2017-11-12T11:49:10.177Z,4012.00
2017-11-12T11:50:10.170Z,3572.00
2017-11-12T11:51:10.164Z,3292.00
2017-11-12T11:52:10.159Z,3108.00
2017-11-12T11:53:10.149Z,2888.00
2017-11-12T11:54:10.147Z,2840.00
2017-11-12T11:55:10.138Z,2932.00
2017-11-12T11:56:10.132Z,3112.00
2017-11-12T11:57:10.125Z,3292.00
2017-11-12T11:58:10.128Z,3372.00
2017-11-12T11:59:10.116Z,3412.00
2017-11-12T12:00:10.111Z,3436.00
2017-11-12T12:01:10.112Z,3616.00
2017-11-12T12:02:10.105Z,3972.00
2017-11-12T12:03:10.099Z,4452.00
2017-11-12T12:04:10.095Z,4944.00
2017-11-12T12:05:10.088Z,5296.00
2017-11-12T12:06:10.083Z,5776.00
2017-11-12T12:07:10.077Z,5736.00
2017-11-12T12:08:10.073Z,5820.00
2017-11-12T12:09:10.065Z,5760.00
2017-11-12T12:10:10.059Z,5428.00
2017-11-12T12:11:10.053Z,4896.00
2017-11-12T12:12:10.056Z,4408.00
2017-11-12T12:13:10.044Z,4376.00
2017-11-12T12:14:10.039Z,4288.00
2017-11-12T12:15:10.034Z,4384.00
2017-11-12T12:16:10.029Z,4592.00
2017-11-12T12:17:10.027Z,4816.00
2017-11-12T12:18:10.024Z,5024.00
2017-11-12T12:19:10.031Z,5360.00
2017-11-12T12:20:10.013Z,5616.00
2017-11-12T12:21:10.008Z,6160.00
2017-11-12T12:22:10.004Z,6916.00
2017-11-12T12:23:09.998Z,7108.00
2017-11-12T12:24:09.994Z,7316.00
2017-11-12T12:25:09.986Z,7320.00
2017-11-12T12:26:09.980Z,7176.00
2017-11-12T12:27:09.976Z,7052.00
2017-11-12T12:28:09.971Z,6772.00
2017-11-12T12:29:09.967Z,6528.00
2017-11-12T12:30:09.964Z,6144.00
2017-11-12T12:31:09.959Z,5848.00
2017-11-12T12:32:09.954Z,5376.00
2017-11-12T12:33:09.955Z,5144.00
2017-11-12T12:34:09.950Z,5016.00
2017-11-12T12:35:09.945Z,4232.00
2017-11-12T12:36:09.941Z,4224.00
2017-11-12T12:37:09.932Z,3820.00
2017-11-12T12:38:09.932Z,3560.00
2017-11-12T12:39:09.928Z,3760.00
2017-11-12T12:40:09.920Z,4056.00
2017-11-12T12:41:09.921Z,4228.00
2017-11-12T12:42:09.919Z,4280.00
2017-11-12T12:43:09.914Z,3624.00
2017-11-12T12:44:09.909Z,3024.00
2017-11-12T12:45:09.905Z,2600.00
2017-11-12T12:46:09.901Z,1944.00